Time;durP1;ratioP1;P1;durP2;ratioP2;P2;SDS_P1;SDS_P2;PMS_P1;PMS_P2;Temp;Humidity;BMP_temperature;BMP_pressure;BME280_temperature;BME280_humidity;BME280_pressure;Samples;Min_cycle;Max_cycle;Signal;HPM_P1;HPM_P2
2023/01/23 00:00:39;;;;;;;43.95;25.75;;;;;;;-2.50;89.50;146711.25;5041502;28;20642;-64
2023/01/23 00:03:04;;;;;;;43.15;24.42;;;;;;;-2.42;89.31;146731.56;5041813;28;20207;-65
2023/01/23 00:05:30;;;;;;;42.38;27.55;;;;;;;-2.50;88.42;146712.50;5052082;28;20040;-66
2023/01/23 00:07:56;;;;;;;42.05;26.25;;;;;;;-2.34;89.44;146751.81;5048477;28;20025;-65
2023/01/23 00:10:21;;;;;;;48.20;26.75;;;;;;;-2.31;88.48;146759.47;5043413;28;20129;-66
2023/01/23 00:12:48;;;;;;;47.08;27.88;;;;;;;-2.23;88.44;146778.47;5044725;28;20025;-66
2023/01/23 00:15:14;;;;;;;46.13;28.60;;;;;;;-2.19;88.39;146787.38;5045424;28;20443;-64
2023/01/23 00:17:40;;;;;;;45.72;28.17;;;;;;;-2.39;89.07;146739.16;5044730;28;20072;-65
2023/01/23 00:20:08;;;;;;;42.72;26.48;;;;;;;-2.35;88.76;146749.31;5062896;28;20062;-66
2023/01/23 00:22:34;;;;;;;39.78;26.48;;;;;;;-2.51;89.93;146708.69;5046531;28;20049;-65
2023/01/23 00:24:59;;;;;;;43.55;24.35;;;;;;;-2.86;90.07;146623.72;5045534;28;20095;-65
2023/01/23 00:27:25;;;;;;;42.33;25.70;;;;;;;-2.73;90.56;146655.44;5038764;28;20088;-65
2023/01/23 00:29:54;;;;;;;44.47;27.00;;;;;;;-2.63;90.53;146680.78;5064847;28;20084;-66
2023/01/23 00:32:19;;;;;;;43.45;26.58;;;;;;;-2.61;90.11;146684.59;5047739;28;20056;-66
2023/01/23 00:34:46;;;;;;;43.42;25.92;;;;;;;-2.85;90.64;146626.28;5051488;28;20056;-65
2023/01/23 00:37:12;;;;;;;46.92;27.35;;;;;;;-2.68;90.14;146668.13;5048834;28;20088;-65
2023/01/23 00:39:38;;;;;;;44.67;27.65;;;;;;;-2.56;89.56;146696.03;5045323;28;20025;-65
2023/01/23 00:42:04;;;;;;;46.53;27.70;;;;;;;-2.46;89.30;146722.66;5031739;28;20033;-65
2023/01/23 00:44:29;;;;;;;43.60;27.58;;;;;;;-2.39;89.68;146739.16;5029208;28;20230;-65
2023/01/23 00:46:56;;;;;;;52.45;30.52;;;;;;;-2.55;89.91;146698.53;5051295;28;20163;-65
2023/01/23 00:49:22;;;;;;;52.90;29.70;;;;;;;-2.45;89.17;146725.19;5044395;28;20314;-65
2023/01/23 00:51:47;;;;;;;51.85;29.10;;;;;;;-2.46;89.63;146721.41;5043657;28;20029;-65
2023/01/23 00:54:13;;;;;;;47.45;29.27;;;;;;;-2.21;89.61;146782.28;5043832;28;20049;-65
2023/01/23 00:56:39;;;;;;;49.33;29.02;;;;;;;-2.60;89.06;146688.38;5044649;28;20037;-66
2023/01/23 00:59:04;;;;;;;47.33;26.80;;;;;;;-2.66;90.10;146671.94;5027362;28;20030;-66
2023/01/23 01:01:31;;;;;;;44.60;28.08;;;;;;;-2.52;90.33;146707.44;5044624;28;20037;-66
2023/01/23 01:03:58;;;;;;;47.13;28.65;;;;;;;-2.28;89.53;146767.06;5044557;28;20037;-65
2023/01/23 01:06:24;;;;;;;50.53;29.27;;;;;;;-2.35;88.97;146748.00;5026093;28;20064;-65
2023/01/23 01:08:50;;;;;;;46.55;29.15;;;;;;;-2.23;89.31;146777.22;5053229;28;20025;-66
2023/01/23 01:11:16;;;;;;;47.30;28.48;;;;;;;-2.51;89.50;146710.00;5043275;28;20036;-67
2023/01/23 01:13:42;;;;;;;49.78;29.67;;;;;;;-2.41;90.57;146734.06;5043794;28;20336;-65
2023/01/23 01:16:09;;;;;;;50.38;28.45;;;;;;;-2.56;89.79;146696.03;5043533;28;20048;-65
2023/01/23 01:18:35;;;;;;;58.33;30.55;;;;;;;-2.60;90.05;146688.38;5044577;28;20029;-65
2023/01/23 01:21:04;;;;;;;54.22;30.20;;;;;;;-2.77;91.01;146646.53;5043812;28;20092;-65
2023/01/23 01:23:30;;;;;;;50.75;27.35;;;;;;;-2.87;90.81;146621.19;5044188;28;20104;-65
2023/01/23 01:25:59;;;;;;;56.05;30.75;;;;;;;-2.64;90.43;146676.97;5043804;28;20029;-68
2023/01/23 01:28:27;;;;;;;55.42;30.90;;;;;;;-2.73;90.77;146655.44;5043456;28;20029;-64
2023/01/23 01:30:52;;;;;;;49.75;29.60;;;;;;;-2.54;90.28;146702.34;5029212;28;20347;-64
2023/01/23 01:33:18;;;;;;;58.22;31.92;;;;;;;-2.45;89.60;146723.94;5043508;28;20033;-65
2023/01/23 01:35:43;;;;;;;51.40;28.65;;;;;;;-2.33;88.75;146754.38;5043680;28;20044;-65
2023/01/23 01:38:09;;;;;;;50.70;28.05;;;;;;;-2.56;89.41;146696.03;5044033;28;20205;-65
2023/01/23 01:40:36;;;;;;;50.70;29.45;;;;;;;-2.41;89.25;146734.06;5045048;28;20095;-65
2023/01/23 01:43:05;;;;;;;43.47;26.10;;;;;;;-2.74;89.93;146652.88;5044244;28;20029;-65
2023/01/23 01:45:55;;;;;;;47.70;28.10;;;;;;;-2.68;90.17;146668.13;5034373;28;20060;-65
2023/01/23 01:48:25;;;;;;;51.22;29.17;;;;;;;-2.68;90.57;146668.13;5043698;28;20056;-66
2023/01/23 01:50:51;;;;;;;49.05;28.45;;;;;;;-2.71;89.59;146659.22;5043401;28;20033;-65
2023/01/23 01:53:17;;;;;;;47.97;29.30;;;;;;;-2.52;89.83;146706.13;5043870;28;20096;-67
2023/01/23 01:55:42;;;;;;;50.17;30.00;;;;;;;-2.51;89.84;146708.69;5043286;28;20080;-65
2023/01/23 01:58:08;;;;;;;49.53;29.05;;;;;;;-2.61;89.14;146685.88;5043901;28;20087;-65
2023/01/23 02:00:34;;;;;;;49.90;29.55;;;;;;;-2.64;88.82;146678.28;5043458;28;20036;-64
2023/01/23 02:03:02;;;;;;;54.75;30.65;;;;;;;-2.43;88.97;146729.00;5042869;28;20026;-65
2023/01/23 02:05:33;;;;;;;48.83;29.63;;;;;;;-2.35;88.08;146748.00;5049246;28;20029;-65
2023/01/23 02:08:18;;;;;;;47.50;28.60;;;;;;;-2.26;87.60;146770.88;5043479;28;20041;-66
2023/01/23 02:10:44;;;;;;;54.58;27.85;;;;;;;-2.45;87.82;146723.94;5028475;28;20025;-66
2023/01/23 02:13:18;;;;;;;43.85;27.35;;;;;;;-2.49;88.57;146713.78;5061809;28;20033;-65
2023/01/23 02:15:45;;;;;;;43.67;27.75;;;;;;;-2.33;88.20;146754.38;5063255;28;20329;-65
2023/01/23 02:18:10;;;;;;;43.20;27.13;;;;;;;-2.24;88.08;146775.94;5063608;28;20028;-65
2023/01/23 02:21:00;;;;;;;47.47;28.33;;;;;;;-2.24;87.65;146775.94;5047477;28;20210;-66
2023/01/23 02:24:18;;;;;;;38.72;24.73;;;;;;;-2.52;87.81;146707.44;5063316;28;20029;-65
2023/01/23 02:26:45;;;;;;;44.88;27.23;;;;;;;-2.58;87.76;146692.19;4991673;28;20038;-64
2023/01/23 02:29:12;;;;;;;43.53;28.00;;;;;;;-2.45;88.06;146725.19;5062905;28;20096;-65
2023/01/23 02:31:37;;;;;;;43.90;27.52;;;;;;;-2.14;87.73;146800.03;5062723;28;20197;-65
2023/01/23 02:34:04;;;;;;;47.03;27.75;;;;;;;-2.41;87.65;146734.06;5062417;28;20096;-65
2023/01/23 02:36:32;;;;;;;47.15;30.02;;;;;;;-2.29;87.36;146764.53;5062558;28;20036;-67
2023/01/23 02:39:03;;;;;;;49.13;28.95;;;;;;;-2.26;87.45;146772.13;5063070;28;20036;-66
2023/01/23 02:41:32;;;;;;;44.20;28.02;;;;;;;-2.03;86.88;146827.97;5062163;28;20068;-66
2023/01/23 02:44:04;;;;;;;49.35;28.52;;;;;;;-2.17;86.42;146793.69;5062436;28;20033;-66
2023/01/23 02:46:29;;;;;;;43.75;25.77;;;;;;;-2.44;87.28;146727.75;5070842;28;20112;-66
2023/01/23 02:48:55;;;;;;;44.88;27.77;;;;;;;-2.24;87.35;146775.94;5062960;28;20037;-64
2023/01/23 02:51:21;;;;;;;43.10;27.35;;;;;;;-2.20;87.21;146786.09;5071912;28;20048;-66
2023/01/23 02:53:47;;;;;;;42.92;25.77;;;;;;;-2.33;86.97;146753.13;5047448;28;20037;-67
2023/01/23 02:56:14;;;;;;;42.17;26.13;;;;;;;-2.28;86.40;146767.06;5064110;28;20055;-66
2023/01/23 03:01:26;;;;;;;35.63;23.25;;;;;;;-2.49;86.99;146713.78;5061979;28;20328;-66
2023/01/23 03:03:54;;;;;;;37.22;23.45;;;;;;;-2.13;87.20;146802.59;5044760;28;20302;-66
2023/01/23 03:06:20;;;;;;;40.67;23.17;;;;;;;-2.52;86.58;146707.44;5062551;28;20310;-66
2023/01/23 03:08:46;;;;;;;38.33;23.50;;;;;;;-2.69;87.64;146665.56;5064147;28;20024;-67
2023/01/23 03:11:13;;;;;;;40.28;24.65;;;;;;;-2.53;87.61;146703.63;5062955;28;20068;-66
2023/01/23 03:13:38;;;;;;;37.28;23.13;;;;;;;-2.36;87.77;146746.75;5062495;28;20032;-69
2023/01/23 03:16:05;;;;;;;44.53;26.08;;;;;;;-2.47;87.66;146720.09;5061679;28;20047;-66
2023/01/23 03:18:32;;;;;;;27.05;17.02;;;;;;;-2.31;86.44;146758.16;5062427;28;20044;-66
2023/01/23 03:21:05;;;;;;;27.25;17.88;;;;;;;-2.10;85.99;146810.19;5071159;28;20032;-65
2023/01/23 03:23:31;;;;;;;33.58;19.98;;;;;;;-2.31;85.65;146759.47;5062154;28;20108;-65
2023/01/23 03:25:59;;;;;;;34.38;20.67;;;;;;;-2.14;85.98;146800.03;5062391;28;20028;-65
2023/01/23 03:31:11;;;;;;;36.22;24.15;;;;;;;-2.09;85.33;146814.00;5061491;28;20028;-64
2023/01/23 03:33:38;;;;;;;43.85;24.42;;;;;;;-2.02;85.71;146829.22;5041940;28;20075;-65
2023/01/23 03:36:07;;;;;;;40.47;24.08;;;;;;;-1.94;86.06;146850.84;5062175;28;20025;-65
2023/01/23 03:38:32;;;;;;;38.90;23.42;;;;;;;-1.82;86.02;146878.75;5062393;28;20031;-65
2023/01/23 03:43:42;;;;;;;38.05;23.45;;;;;;;-1.77;85.72;146892.72;5061926;28;20075;-65
2023/01/23 03:46:08;;;;;;;38.72;22.88;;;;;;;-1.86;85.44;146868.59;5064149;28;20041;-65
2023/01/23 03:48:34;;;;;;;37.47;21.63;;;;;;;-2.14;85.26;146801.34;5066198;28;20041;-65
2023/01/23 03:50:59;;;;;;;33.75;21.30;;;;;;;-2.16;85.62;146795.00;5072694;28;20040;-65
2023/01/23 03:53:25;;;;;;;33.95;19.50;;;;;;;-2.18;85.20;146789.88;5065820;28;20074;-65
2023/01/23 03:55:51;;;;;;;28.08;17.02;;;;;;;-2.08;85.66;146815.31;5061004;28;20033;-66
2023/01/23 03:58:16;;;;;;;33.78;20.13;;;;;;;-2.14;85.89;146801.34;5047459;28;20045;-65
2023/01/23 04:00:42;;;;;;;34.88;20.15;;;;;;;-1.93;85.79;146853.34;5082035;28;20193;-65
2023/01/23 04:03:07;;;;;;;26.55;16.08;;;;;;;-1.96;84.59;146845.72;5058412;28;20308;-66
2023/01/23 04:05:34;;;;;;;25.92;15.93;;;;;;;-2.02;84.27;146829.22;5056164;28;20057;-66
2023/01/23 04:08:00;;;;;;;29.15;16.38;;;;;;;-1.83;84.22;146877.47;5064544;28;20209;-66
2023/01/23 04:10:26;;;;;;;26.27;15.98;;;;;;;-1.88;83.88;146864.78;5065600;28;20021;-65
2023/01/23 04:12:52;;;;;;;22.08;15.15;;;;;;;-1.79;83.27;146887.63;5048005;28;20032;-65
2023/01/23 04:15:18;;;;;;;22.77;14.45;;;;;;;-1.88;82.36;146863.50;5064666;28;20043;-66
2023/01/23 04:17:43;;;;;;;24.83;14.50;;;;;;;-1.98;82.45;146840.69;5064761;28;20037;-65
2023/01/23 04:20:12;;;;;;;21.77;13.73;;;;;;;-1.75;83.59;146896.53;5072750;28;20020;-64
2023/01/23 04:22:38;;;;;;;18.40;12.48;;;;;;;-1.71;82.96;146906.69;5067654;28;20087;-63
2023/01/23 04:25:04;;;;;;;19.30;13.18;;;;;;;-1.83;83.01;146876.19;5063878;28;20325;-64
2023/01/23 04:27:30;;;;;;;20.88;14.02;;;;;;;-2.04;83.00;146824.16;5057781;28;20225;-64
2023/01/23 04:29:57;;;;;;;21.35;14.82;;;;;;;-1.83;82.96;146877.47;5064002;28;20313;-64
2023/01/23 04:32:23;;;;;;;22.35;14.68;;;;;;;-2.16;83.65;146795.00;5065931;28;20332;-65
2023/01/23 04:34:49;;;;;;;24.40;14.15;;;;;;;-2.32;84.62;146756.91;5064454;28;20032;-65
2023/01/23 04:37:15;;;;;;;24.98;14.45;;;;;;;-2.31;84.82;146759.47;5064581;28;20024;-64
2023/01/23 04:39:40;;;;;;;23.40;14.43;;;;;;;-2.24;84.82;146774.69;5064373;28;20032;-62
2023/01/23 04:42:06;;;;;;;21.60;13.38;;;;;;;-2.45;84.35;146723.94;5064633;28;20017;-63
2023/01/23 04:44:32;;;;;;;20.05;13.05;;;;;;;-2.09;84.27;146812.75;5064076;28;20092;-63
2023/01/23 04:46:58;;;;;;;18.80;12.27;;;;;;;-2.06;83.07;146819.09;5066149;28;20024;-63
2023/01/23 04:49:25;;;;;;;23.13;13.35;;;;;;;-1.98;83.40;146840.69;5063003;28;20096;-63
2023/01/23 04:51:51;;;;;;;21.25;13.48;;;;;;;-2.00;83.21;146835.56;5063950;28;20021;-64
2023/01/23 04:54:17;;;;;;;19.70;12.35;;;;;;;-2.03;82.59;146826.72;5064536;28;20082;-65
2023/01/23 04:56:44;;;;;;;19.48;11.88;;;;;;;-1.88;83.17;146864.78;5029183;28;20064;-64
2023/01/23 04:59:10;;;;;;;17.73;11.43;;;;;;;-2.02;82.52;146830.50;5071647;28;20415;-64
2023/01/23 05:01:36;;;;;;;19.60;12.88;;;;;;;-2.00;83.20;146835.56;5073113;28;20037;-63
2023/01/23 05:04:02;;;;;;;17.27;12.23;;;;;;;-1.80;82.03;146885.06;5063714;28;20072;-64
2023/01/23 05:06:28;;;;;;;21.45;11.68;;;;;;;-1.84;81.92;146873.66;5072757;28;20092;-64
2023/01/23 05:08:53;;;;;;;17.77;12.32;;;;;;;-1.66;82.65;146918.09;5064267;28;20032;-66
2023/01/23 05:11:19;;;;;;;18.90;12.40;;;;;;;-1.69;81.24;146911.75;5029554;28;20036;-65
2023/01/23 05:13:44;;;;;;;21.75;12.80;;;;;;;-1.70;80.72;146907.94;5064177;28;20206;-66
2023/01/23 05:16:10;;;;;;;22.67;14.23;;;;;;;-2.19;82.08;146787.38;5063675;28;20048;-65
2023/01/23 05:18:36;;;;;;;21.13;14.00;;;;;;;-1.92;83.03;146855.88;5065404;28;20398;-65
2023/01/23 05:21:02;;;;;;;20.33;13.63;;;;;;;-1.80;82.94;146885.06;5069182;28;20021;-65
2023/01/23 05:23:27;;;;;;;20.92;12.32;;;;;;;-2.34;82.83;146750.56;5072482;28;20039;-64
2023/01/23 05:25:53;;;;;;;21.75;14.15;;;;;;;-2.06;82.78;146820.34;5078759;28;20256;-64
2023/01/23 05:28:19;;;;;;;21.52;13.80;;;;;;;-2.07;81.97;146817.81;5064191;28;20313;-64
2023/01/23 05:30:45;;;;;;;21.88;13.85;;;;;;;-1.95;82.66;146847.03;5063838;28;20032;-64
2023/01/23 05:33:10;;;;;;;21.38;13.13;;;;;;;-2.18;82.45;146789.88;5063965;28;20036;-64
2023/01/23 05:35:37;;;;;;;20.73;13.45;;;;;;;-1.95;82.40;146847.03;5070945;28;20025;-64
2023/01/23 05:38:03;;;;;;;20.33;13.57;;;;;;;-1.95;82.04;146848.28;5062140;28;20292;-65
2023/01/23 05:40:28;;;;;;;23.48;14.00;;;;;;;-2.03;82.03;146827.97;5059632;28;20026;-63
2023/01/23 05:42:54;;;;;;;20.80;12.05;;;;;;;-2.60;82.91;146688.38;5063192;28;20033;-65
2023/01/23 05:45:19;;;;;;;20.95;13.25;;;;;;;-2.41;84.41;146734.06;5062595;28;20510;-66
2023/01/23 05:47:46;;;;;;;27.75;14.70;;;;;;;-2.35;83.28;146749.31;5063322;28;20024;-64
2023/01/23 05:50:17;;;;;;;23.48;14.15;;;;;;;-2.23;83.72;146778.47;5067201;28;20020;-64
2023/01/23 05:52:44;;;;;;;20.83;14.32;;;;;;;-2.07;82.41;146817.81;5063191;28;20035;-64
2023/01/23 05:55:09;;;;;;;20.50;13.95;;;;;;;-2.34;82.33;146750.56;5063578;28;20032;-65
2023/01/23 05:57:35;;;;;;;23.95;14.82;;;;;;;-2.16;83.45;146796.25;5081191;28;20029;-65
2023/01/23 06:00:02;;;;;;;21.92;14.80;;;;;;;-2.31;84.04;146758.16;5069543;28;20044;-64
2023/01/23 06:02:28;;;;;;;23.45;15.75;;;;;;;-2.32;83.86;146756.91;5066495;28;20141;-64
2023/01/23 06:04:53;;;;;;;24.90;15.10;;;;;;;-2.44;84.25;146726.44;5067584;28;20028;-64
2023/01/23 06:07:19;;;;;;;21.60;14.23;;;;;;;-2.49;83.41;146713.78;5066012;28;20051;-65
2023/01/23 06:09:45;;;;;;;23.75;14.82;;;;;;;-2.51;84.57;146708.69;5062129;28;20071;-65
2023/01/23 06:12:11;;;;;;;22.95;14.60;;;;;;;-2.27;83.48;146769.63;5062945;28;20372;-64
2023/01/23 06:14:37;;;;;;;22.05;13.35;;;;;;;-2.63;84.03;146679.53;5062929;28;20039;-64
2023/01/23 06:17:03;;;;;;;24.50;14.82;;;;;;;-2.54;83.91;146702.34;5065424;28;20094;-64
2023/01/23 06:19:29;;;;;;;23.25;15.02;;;;;;;-2.29;84.44;146763.28;5081846;28;20092;-64
2023/01/23 06:21:54;;;;;;;23.58;14.23;;;;;;;-2.20;83.28;146786.09;5062863;28;20056;-65
2023/01/23 06:24:20;;;;;;;24.95;14.32;;;;;;;-2.36;82.87;146745.50;5078995;28;20182;-65
2023/01/23 06:26:45;;;;;;;25.30;15.50;;;;;;;-2.19;83.60;146787.38;5074540;28;20037;-65
2023/01/23 06:29:11;;;;;;;26.15;14.80;;;;;;;-2.26;83.17;146770.88;5076118;28;20209;-64
2023/01/23 06:31:37;;;;;;;20.98;13.73;;;;;;;-2.32;83.68;146756.91;5062440;28;20032;-64
2023/01/23 06:34:03;;;;;;;22.55;14.00;;;;;;;-2.38;83.27;146740.41;5062784;28;20055;-64
2023/01/23 06:36:29;;;;;;;19.88;12.98;;;;;;;-2.62;84.25;146682.09;5062109;28;20053;-64
2023/01/23 06:38:54;;;;;;;23.13;13.48;;;;;;;-2.49;83.84;146715.03;5070145;28;20025;-64
2023/01/23 06:41:20;;;;;;;23.88;14.75;;;;;;;-2.53;83.55;146704.91;5070425;28;20047;-65
2023/01/23 06:43:46;;;;;;;24.77;14.38;;;;;;;-2.46;84.26;146722.66;5079540;28;20048;-64
2023/01/23 06:46:12;;;;;;;20.02;12.50;;;;;;;-2.95;84.69;146602.19;5063040;28;20056;-64
2023/01/23 06:48:38;;;;;;;28.52;14.98;;;;;;;-2.88;85.41;146617.38;5061385;28;20024;-66
2023/01/23 06:51:04;;;;;;;26.38;14.27;;;;;;;-2.62;85.24;146683.34;5061709;28;20036;-66
2023/01/23 06:53:31;;;;;;;24.77;14.60;;;;;;;-2.77;85.29;146645.28;5061686;28;20099;-66
2023/01/23 06:56:01;;;;;;;28.15;16.65;;;;;;;-2.54;85.38;146702.34;5061464;28;20329;-65
2023/01/23 06:58:27;;;;;;;27.80;14.85;;;;;;;-2.35;84.06;146748.00;5061834;28;20332;-66
2023/01/23 07:00:53;;;;;;;25.25;13.32;;;;;;;-2.35;84.41;146748.00;5082377;28;20029;-64
2023/01/23 07:03:19;;;;;;;26.70;14.40;;;;;;;-2.52;83.76;146707.44;5066585;28;20040;-66
2023/01/23 07:05:44;;;;;;;29.83;13.43;;;;;;;-2.80;84.78;146637.69;5073176;28;20028;-64
2023/01/23 07:08:10;;;;;;;24.42;14.75;;;;;;;-2.90;85.63;146612.31;5076105;28;20020;-67
2023/01/23 07:10:37;;;;;;;27.23;14.35;;;;;;;-2.89;85.80;146614.81;5062560;28;20087;-65
2023/01/23 07:13:07;;;;;;;26.98;14.68;;;;;;;-2.88;85.78;146617.38;5044478;28;20051;-64
2023/01/23 07:15:33;;;;;;;26.05;15.60;;;;;;;-2.59;84.74;146689.69;5078078;28;20044;-65
2023/01/23 07:17:59;;;;;;;29.65;15.65;;;;;;;-2.86;85.01;146622.47;5051470;28;20036;-64
2023/01/23 07:20:26;;;;;;;24.17;14.02;;;;;;;-2.41;84.72;146734.06;5069912;28;20025;-65
2023/01/23 07:22:53;;;;;;;33.20;14.40;;;;;;;-2.57;83.71;146693.50;5078501;28;20031;-65
2023/01/23 07:25:20;;;;;;;28.95;14.38;;;;;;;-2.57;83.45;146694.75;5062611;28;20311;-65
2023/01/23 07:27:46;;;;;;;24.38;14.75;;;;;;;-2.39;82.76;146739.16;5068695;28;20039;-65
2023/01/23 07:30:11;;;;;;;24.08;13.75;;;;;;;-2.54;82.43;146702.34;5062122;28;20029;-65
2023/01/23 07:32:37;;;;;;;23.17;13.98;;;;;;;-2.76;83.22;146647.81;5062368;28;20032;-65
2023/01/23 07:35:03;;;;;;;23.67;13.90;;;;;;;-2.69;83.42;146665.56;5061948;28;20284;-65
2023/01/23 07:37:28;;;;;;;21.40;12.38;;;;;;;-2.90;83.59;146613.56;5061279;28;20031;-65
2023/01/23 07:39:54;;;;;;;21.98;12.25;;;;;;;-2.75;83.56;146650.38;5081287;28;20039;-66
2023/01/23 07:42:19;;;;;;;21.45;13.02;;;;;;;-2.66;83.62;146673.19;5066076;28;20025;-65
2023/01/23 07:44:45;;;;;;;20.75;12.98;;;;;;;-2.75;84.01;146650.38;5062438;28;20044;-64
2023/01/23 07:47:10;;;;;;;25.60;13.27;;;;;;;-2.81;84.97;146636.44;5060816;28;20036;-65
2023/01/23 07:49:36;;;;;;;23.73;13.90;;;;;;;-2.86;85.08;146623.72;5061480;28;20032;-65
2023/01/23 07:52:03;;;;;;;19.77;12.88;;;;;;;-2.86;84.14;146622.47;5060453;28;20033;-66
2023/01/23 07:54:28;;;;;;;20.60;12.65;;;;;;;-2.40;83.67;146735.34;5078078;28;20064;-65
2023/01/23 07:56:54;;;;;;;20.05;11.95;;;;;;;-2.26;82.79;146770.88;5069188;28;20033;-65
2023/01/23 07:59:21;;;;;;;23.45;11.73;;;;;;;-2.31;81.73;146758.16;5068610;28;20024;-66
2023/01/23 08:01:47;;;;;;;17.52;11.02;;;;;;;-2.58;80.88;146692.19;5079317;28;20367;-64
2023/01/23 08:04:13;;;;;;;18.95;10.90;;;;;;;-2.21;80.94;146782.28;5061789;28;20205;-66
2023/01/23 08:06:39;;;;;;;25.48;13.13;;;;;;;-2.08;81.15;146816.56;5067935;28;20071;-67
2023/01/23 08:09:05;;;;;;;17.48;10.20;;;;;;;-2.23;78.90;146777.22;5066561;28;20036;-66
2023/01/23 08:11:31;;;;;;;15.85;9.63;;;;;;;-2.23;77.80;146777.22;5069626;28;20301;-65
2023/01/23 08:13:56;;;;;;;16.65;10.40;;;;;;;-2.16;78.94;146796.25;5077947;28;20298;-65
2023/01/23 08:16:22;;;;;;;14.40;8.25;;;;;;;-2.06;77.96;146820.34;5044158;28;20092;-65
2023/01/23 08:18:47;;;;;;;16.02;9.20;;;;;;;-2.24;77.00;146775.94;5080757;28;20025;-65
2023/01/23 08:21:13;;;;;;;16.27;9.63;;;;;;;-2.28;78.18;146767.06;5067355;28;20040;-65
2023/01/23 08:23:40;;;;;;;18.27;9.88;;;;;;;-2.15;79.60;146798.78;5061733;28;20051;-65
2023/01/23 08:26:07;;;;;;;14.30;9.45;;;;;;;-2.04;78.75;146824.16;5076778;28;20045;-64
2023/01/23 08:28:34;;;;;;;12.75;8.45;;;;;;;-2.30;78.31;146760.72;5079241;28;20032;-65
2023/01/23 08:31:06;;;;;;;13.48;8.80;;;;;;;-2.11;79.02;146808.94;5043498;28;20029;-65
2023/01/23 08:33:33;;;;;;;16.67;9.82;;;;;;;-2.02;77.97;146829.22;5063872;28;20313;-65
2023/01/23 08:35:59;;;;;;;15.68;9.50;;;;;;;-2.15;78.01;146798.78;5077033;28;20038;-64
2023/01/23 08:38:24;;;;;;;15.50;9.63;;;;;;;-1.81;77.68;146881.25;5060287;28;20096;-65
2023/01/23 08:40:51;;;;;;;11.80;8.52;;;;;;;-2.49;78.45;146713.78;5064917;28;20217;-65
2023/01/23 08:43:19;;;;;;;16.42;9.30;;;;;;;-2.16;78.81;146796.25;5064787;28;20024;-66
2023/01/23 08:45:49;;;;;;;15.07;9.68;;;;;;;-2.39;79.22;146739.16;5082466;28;20044;-66
2023/01/23 08:48:14;;;;;;;14.18;9.05;;;;;;;-2.44;80.14;146726.44;5071113;28;20029;-66
2023/01/23 08:50:40;;;;;;;13.70;9.40;;;;;;;-2.18;80.20;146791.19;5070531;28;20189;-65
2023/01/23 08:53:06;;;;;;;15.77;9.65;;;;;;;-1.96;79.88;146845.72;5069889;28;20313;-67
2023/01/23 08:55:32;;;;;;;17.80;9.48;;;;;;;-1.87;79.36;146867.28;5084476;28;20081;-66
2023/01/23 08:57:58;;;;;;;14.60;9.75;;;;;;;-1.87;80.24;146866.03;5044680;28;20193;-66
2023/01/23 09:00:24;;;;;;;15.70;9.73;;;;;;;-1.80;79.91;146885.06;5060386;28;20025;-66
2023/01/23 09:02:50;;;;;;;16.80;10.82;;;;;;;-1.83;81.10;146876.19;5062978;28;20084;-65
2023/01/23 09:05:16;;;;;;;18.65;10.30;;;;;;;-2.15;80.87;146798.78;5048726;28;20032;-66
2023/01/23 09:07:42;;;;;;;16.27;10.45;;;;;;;-1.97;82.21;146841.94;5047993;28;20090;-66
2023/01/23 09:10:08;;;;;;;18.80;10.15;;;;;;;-1.96;81.23;146844.47;5068706;28;20329;-65
2023/01/23 09:12:34;;;;;;;19.42;10.38;;;;;;;-1.85;80.88;146871.09;5081049;28;20051;-65
2023/01/23 09:14:59;;;;;;;15.43;9.60;;;;;;;-1.95;81.37;146848.28;5072575;28;20033;-65
2023/01/23 09:17:25;;;;;;;13.48;10.30;;;;;;;-2.03;80.79;146826.72;5071502;28;20032;-65
2023/01/23 09:19:52;;;;;;;16.92;9.27;;;;;;;-2.55;80.70;146698.53;5063913;28;20091;-65
2023/01/23 09:22:18;;;;;;;16.40;10.02;;;;;;;-2.29;80.11;146763.28;5064498;28;20316;-64
2023/01/23 09:24:44;;;;;;;13.48;9.40;;;;;;;-2.27;79.43;146769.63;5081789;28;20028;-65
2023/01/23 09:27:10;;;;;;;16.27;9.75;;;;;;;-2.30;79.44;146761.97;5073870;28;20059;-64
2023/01/23 09:29:36;;;;;;;17.48;9.57;;;;;;;-2.36;79.70;146745.50;5072499;28;20039;-65
2023/01/23 09:32:02;;;;;;;13.60;9.55;;;;;;;-2.32;80.40;146756.91;5069406;28;20055;-66
2023/01/23 09:34:28;;;;;;;14.95;9.40;;;;;;;-2.08;80.49;146816.56;5083393;28;20017;-65
2023/01/23 09:36:54;;;;;;;17.80;9.38;;;;;;;-2.20;79.63;146784.81;5064956;28;20084;-66
2023/01/23 09:39:20;;;;;;;15.70;9.90;;;;;;;-2.28;80.10;146765.78;5078288;28;20024;-65
2023/01/23 09:41:47;;;;;;;14.90;10.73;;;;;;;-2.21;80.49;146782.28;5072959;28;20109;-65
2023/01/23 09:44:37;;;;;;;17.88;11.38;;;;;;;-2.16;80.55;146796.25;5068424;28;20032;-65
2023/01/23 09:47:16;;;;;;;14.32;10.35;;;;;;;-2.09;79.52;146814.00;5080223;28;20067;-65
2023/01/23 09:49:47;;;;;;;18.10;11.02;;;;;;;-2.08;79.76;146815.31;5046411;28;20109;-67
2023/01/23 09:52:25;;;;;;;15.55;10.32;;;;;;;-2.06;79.90;146819.09;5084062;28;20370;-65
2023/01/23 09:54:58;;;;;;;16.83;10.80;;;;;;;-2.34;79.64;146750.56;5047243;28;20028;-64
2023/01/23 09:57:33;;;;;;;16.38;11.05;;;;;;;-2.44;79.74;146726.44;5078431;28;20032;-65
2023/01/23 10:00:14;;;;;;;16.23;11.27;;;;;;;-2.38;79.85;146741.72;5072256;28;20021;-65
2023/01/23 10:02:43;;;;;;;21.25;12.80;;;;;;;-2.40;80.31;146735.34;5071522;28;20074;-65
2023/01/23 10:05:14;;;;;;;20.83;13.43;;;;;;;-2.68;80.88;146668.13;5075865;28;20045;-65
2023/01/23 10:08:01;;;;;;;26.70;13.07;;;;;;;-2.57;80.60;146693.50;5063457;28;20099;-66
2023/01/23 10:10:26;;;;;;;26.58;15.85;;;;;;;-2.57;80.72;146693.50;5063270;28;20037;-66
2023/01/23 10:13:18;;;;;;;23.35;15.48;;;;;;;-2.41;81.60;146734.06;5081746;28;20083;-65
2023/01/23 10:16:12;;;;;;;26.13;16.00;;;;;;;-2.60;80.31;146687.13;5065832;28;20028;-65
2023/01/23 10:18:53;;;;;;;23.55;16.55;;;;;;;-2.44;80.00;146726.44;5045137;28;20043;-65
2023/01/23 10:21:36;;;;;;;24.83;17.30;;;;;;;-2.17;80.37;146792.44;5062975;28;20431;-65
2023/01/23 10:24:07;;;;;;;28.98;17.92;;;;;;;-2.00;80.26;146834.31;5074024;28;20347;-65
2023/01/23 10:26:41;;;;;;;24.95;17.17;;;;;;;-2.26;80.35;146772.13;5077668;28;20036;-64
2023/01/23 10:29:31;;;;;;;27.48;17.05;;;;;;;-2.05;79.53;146822.91;5062936;28;20029;-65
2023/01/23 10:32:00;;;;;;;27.55;17.88;;;;;;;-1.86;79.25;146869.84;5044563;28;20292;-65
2023/01/23 10:34:51;;;;;;;26.90;16.40;;;;;;;-1.83;77.90;146877.47;5063151;28;20093;-64
2023/01/23 10:37:49;;;;;;;27.88;17.13;;;;;;;-1.91;78.07;146857.13;5051554;28;20024;-63
2023/01/23 10:43:02;;;;;;;29.90;17.70;;;;;;;-1.94;78.43;146850.84;5081906;28;20040;-64
2023/01/23 10:45:29;;;;;;;28.85;18.63;;;;;;;-2.39;78.47;146739.16;5067790;28;20053;-65
2023/01/23 10:47:54;;;;;;;28.50;17.85;;;;;;;-2.10;79.50;146810.19;5034697;28;20037;-66
2023/01/23 10:50:34;;;;;;;30.80;17.73;;;;;;;-2.41;78.99;146734.06;5048491;28;20112;-67
2023/01/23 10:53:16;;;;;;;25.60;16.23;;;;;;;-2.13;79.63;146803.84;5065161;28;20053;-66
2023/01/23 10:55:45;;;;;;;28.48;18.38;;;;;;;-1.89;78.95;146862.25;5081841;28;20054;-64
2023/01/23 10:58:32;;;;;;;29.88;18.23;;;;;;;-1.77;77.84;146892.72;5062279;28;20033;-65
2023/01/23 11:00:59;;;;;;;30.30;18.23;;;;;;;-1.85;78.03;146871.09;5070005;28;20060;-65
2023/01/23 11:03:29;;;;;;;27.33;18.17;;;;;;;-1.91;76.83;146858.44;5062429;28;20088;-64
2023/01/23 11:06:15;;;;;;;27.10;17.73;;;;;;;-2.00;78.48;146834.31;5071174;28;20048;-65
2023/01/23 11:08:54;;;;;;;31.98;18.33;;;;;;;-1.93;78.50;146853.34;5060416;28;20067;-65
2023/01/23 11:11:28;;;;;;;30.05;18.58;;;;;;;-2.12;77.73;146805.16;5062053;28;20033;-65
2023/01/23 11:14:06;;;;;;;32.42;19.40;;;;;;;-1.86;77.81;146869.84;5063026;28;20025;-65
2023/01/23 11:16:32;;;;;;;31.42;19.45;;;;;;;-1.84;76.58;146873.66;5082118;28;20040;-64
2023/01/23 11:19:06;;;;;;;30.02;18.92;;;;;;;-1.97;76.58;146841.94;5063644;28;20021;-64
2023/01/23 11:21:34;;;;;;;31.15;19.20;;;;;;;-2.05;77.11;146822.91;5062296;28;20021;-66
2023/01/23 11:24:09;;;;;;;31.05;18.85;;;;;;;-2.13;77.27;146802.59;5073023;28;20471;-66